Time;durP1;ratioP1;P1;durP2;ratioP2;P2;SDS_P1;SDS_P2;PMS_P1;PMS_P2;Temp;Humidity;BMP_temperature;BMP_pressure;BME280_temperature;BME280_humidity;BME280_pressure;Samples;Min_cycle;Max_cycle;Signal;HPM_P1;HPM_P2
2024/01/27 00:02:07;;;;;;;16.15;3.00;;;4.10;99.90;;;;;;6173037;23;20017;-89
2024/01/27 00:04:36;;;;;;;20.40;2.78;;;4.10;99.90;;;;;;6148424;23;20013;-89
2024/01/27 00:07:03;;;;;;;13.48;2.17;;;4.20;99.90;;;;;;6148206;23;20017;-90
2024/01/27 00:09:30;;;;;;;23.70;2.83;;;4.20;99.90;;;;;;6148029;23;20468;-90
2024/01/27 00:11:56;;;;;;;15.57;3.00;;;4.70;99.90;;;;;;6148157;23;20041;-89
2024/01/27 00:14:23;;;;;;;25.98;2.80;;;4.20;99.90;;;;;;6173045;23;20059;-89
2024/01/27 00:16:50;;;;;;;20.02;3.00;;;4.10;99.90;;;;;;6148394;23;20024;-89
2024/01/27 00:19:16;;;;;;;24.50;2.97;;;5.00;99.90;;;;;;6173365;23;20080;-89
2024/01/27 00:21:43;;;;;;;16.00;2.92;;;4.20;99.90;;;;;;6148940;23;20092;-89
2024/01/27 00:24:10;;;;;;;24.88;2.78;;;4.90;99.90;;;;;;6147916;23;20014;-89
2024/01/27 00:26:37;;;;;;;22.48;2.90;;;5.10;99.90;;;;;;6148555;23;20020;-89
2024/01/27 00:29:03;;;;;;;17.23;2.72;;;4.40;99.90;;;;;;6148379;23;20020;-89
2024/01/27 00:31:30;;;;;;;20.60;2.80;;;4.90;99.90;;;;;;6172594;23;20009;-89
2024/01/27 00:33:57;;;;;;;19.20;2.95;;;4.00;99.90;;;;;;6148529;23;20622;-89
2024/01/27 00:36:23;;;;;;;23.58;2.65;;;4.00;99.90;;;;;;6148242;23;20047;-89
2024/01/27 00:38:50;;;;;;;19.88;2.70;;;4.00;99.90;;;;;;6148174;23;20020;-89
2024/01/27 00:41:17;;;;;;;15.48;2.72;;;4.00;99.90;;;;;;6148021;23;20013;-90
2024/01/27 00:43:45;;;;;;;17.13;2.70;;;4.00;99.90;;;;;;6148349;23;20018;-88
2024/01/27 00:46:12;;;;;;;15.82;2.88;;;4.30;99.90;;;;;;6148287;23;20013;-89
2024/01/27 00:48:38;;;;;;;17.45;2.40;;;3.90;99.90;;;;;;6148026;23;20023;-88
2024/01/27 00:51:05;;;;;;;16.55;2.40;;;4.60;99.90;;;;;;6148328;23;20100;-88
2024/01/27 00:53:31;;;;;;;14.63;2.53;;;3.90;99.90;;;;;;6147809;23;20010;-89
2024/01/27 00:55:58;;;;;;;32.80;3.38;;;3.80;99.90;;;;;;6148145;23;20016;-88
2024/01/27 00:58:25;;;;;;;19.38;2.70;;;4.20;99.90;;;;;;6148226;23;20005;-89
2024/01/27 01:00:52;;;;;;;11.13;2.53;;;3.80;99.90;;;;;;6148252;23;20018;-89
2024/01/27 01:03:18;;;;;;;21.65;2.92;;;4.00;99.90;;;;;;6148091;23;20010;-89
2024/01/27 01:05:45;;;;;;;15.38;2.50;;;4.10;99.90;;;;;;6147964;23;20013;-89
2024/01/27 01:08:12;;;;;;;19.83;2.75;;;3.80;99.90;;;;;;6148485;23;20092;-88
2024/01/27 01:10:38;;;;;;;23.10;3.75;;;3.80;99.90;;;;;;6150119;23;20746;-88
2024/01/27 01:13:05;;;;;;;30.20;4.72;;;3.80;99.90;;;;;;6150192;23;20043;-88
2024/01/27 01:15:32;;;;;;;20.65;2.75;;;3.80;99.90;;;;;;6149668;23;20504;-88
2024/01/27 01:17:59;;;;;;;12.52;2.45;;;4.30;99.90;;;;;;6174161;23;20013;-88
2024/01/27 01:20:26;;;;;;;23.50;3.05;;;4.70;99.90;;;;;;6150116;23;20021;-89
2024/01/27 01:22:53;;;;;;;16.10;2.72;;;3.70;99.90;;;;;;6149909;23;20013;-88
2024/01/27 01:25:20;;;;;;;20.27;3.42;;;3.70;99.90;;;;;;6149884;23;20096;-88
2024/01/27 01:27:49;;;;;;;20.33;2.50;;;3.70;99.90;;;;;;6150027;23;20449;-89
2024/01/27 01:30:19;;;;;;;22.42;3.25;;;3.70;99.90;;;;;;6174380;23;20413;-89
2024/01/27 01:32:45;;;;;;;21.73;2.90;;;3.70;99.90;;;;;;6150144;23;20006;-89
2024/01/27 01:35:12;;;;;;;23.42;2.85;;;3.60;99.90;;;;;;6150342;23;20064;-88
2024/01/27 01:37:39;;;;;;;16.00;2.47;;;3.60;99.90;;;;;;6149955;23;20013;-88
2024/01/27 01:40:07;;;;;;;16.38;3.00;;;3.60;99.90;;;;;;6150092;23;20071;-89
2024/01/27 01:42:33;;;;;;;21.10;3.05;;;3.60;99.90;;;;;;6149799;23;20018;-88
2024/01/27 01:45:00;;;;;;;19.42;2.72;;;3.60;99.90;;;;;;6150131;23;20452;-88
2024/01/27 01:47:27;;;;;;;14.70;2.70;;;3.60;99.90;;;;;;6174060;23;20101;-89
2024/01/27 01:49:55;;;;;;;25.33;3.08;;;3.60;99.90;;;;;;6150242;23;20537;-89
2024/01/27 01:52:22;;;;;;;18.77;2.25;;;3.60;99.90;;;;;;6149998;23;20802;-89
2024/01/27 01:54:50;;;;;;;14.85;2.38;;;3.60;99.90;;;;;;6174416;23;20056;-89
2024/01/27 01:57:17;;;;;;;18.67;3.15;;;3.60;99.90;;;;;;6149818;23;20557;-89
2024/01/27 01:59:44;;;;;;;21.75;2.45;;;3.60;99.90;;;;;;6149760;23;20348;-89
2024/01/27 02:02:12;;;;;;;15.93;2.67;;;3.70;99.90;;;;;;6149784;23;20013;-89
2024/01/27 02:04:43;;;;;;;21.02;3.00;;;4.20;99.90;;;;;;6149904;23;20020;-89
2024/01/27 02:07:09;;;;;;;23.65;2.80;;;4.40;99.90;;;;;;6149773;23;20025;-89
2024/01/27 02:09:36;;;;;;;18.30;2.80;;;3.70;99.90;;;;;;6174119;23;20014;-89
2024/01/27 02:12:03;;;;;;;18.25;2.95;;;3.50;99.90;;;;;;6149705;23;20033;-89
2024/01/27 02:14:30;;;;;;;21.35;2.88;;;3.50;99.90;;;;;;6149700;23;20096;-88
2024/01/27 02:16:57;;;;;;;27.58;3.53;;;4.50;99.90;;;;;;6148795;23;20014;-89
2024/01/27 02:19:24;;;;;;;22.33;3.13;;;3.40;99.90;;;;;;6147829;23;20024;-89
2024/01/27 02:21:51;;;;;;;12.68;2.85;;;3.40;99.90;;;;;;6147822;23;20009;-89
2024/01/27 02:24:17;;;;;;;22.63;2.95;;;3.40;99.90;;;;;;6148189;23;20075;-89
2024/01/27 02:26:44;;;;;;;17.17;3.45;;;3.30;99.90;;;;;;6148038;23;20445;-89
2024/01/27 02:29:10;;;;;;;20.13;3.28;;;3.30;99.90;;;;;;6147976;23;20044;-89
2024/01/27 02:31:37;;;;;;;18.45;3.08;;;3.30;99.90;;;;;;6147937;23;20014;-89
2024/01/27 02:34:04;;;;;;;25.17;2.85;;;3.30;99.90;;;;;;6147839;23;20096;-89
2024/01/27 02:36:30;;;;;;;21.02;3.30;;;4.20;99.90;;;;;;6172205;23;20013;-89
2024/01/27 02:38:57;;;;;;;30.50;5.03;;;3.20;99.90;;;;;;6148098;23;20349;-88
2024/01/27 02:41:24;;;;;;;11.70;2.42;;;3.20;99.90;;;;;;6147975;23;20013;-89
2024/01/27 02:43:50;;;;;;;18.70;3.38;;;3.30;99.90;;;;;;6147857;23;20452;-89
2024/01/27 02:46:18;;;;;;;20.75;2.90;;;3.20;99.90;;;;;;6147682;23;20024;-89
2024/01/27 02:48:45;;;;;;;13.68;2.50;;;3.20;99.90;;;;;;6147775;23;20021;-89
2024/01/27 02:51:13;;;;;;;13.10;2.95;;;3.20;99.90;;;;;;6172108;23;20020;-89
2024/01/27 02:53:39;;;;;;;20.98;3.17;;;3.10;99.90;;;;;;6147878;23;20467;-89
2024/01/27 02:56:09;;;;;;;17.35;2.75;;;4.00;99.90;;;;;;6172141;23;20014;-90
2024/01/27 02:58:35;;;;;;;18.17;2.78;;;3.10;99.90;;;;;;6148187;23;20392;-88
2024/01/27 03:01:02;;;;;;;14.55;2.20;;;3.10;99.90;;;;;;6148268;23;20014;-89
2024/01/27 03:03:29;;;;;;;17.70;3.17;;;3.20;99.90;;;;;;6172108;23;20376;-89
2024/01/27 03:05:55;;;;;;;15.35;2.25;;;3.20;99.90;;;;;;6148019;23;20071;-89
2024/01/27 03:08:22;;;;;;;17.63;2.78;;;3.20;99.90;;;;;;6147718;23;20013;-89
2024/01/27 03:10:49;;;;;;;23.67;3.00;;;3.50;99.90;;;;;;6147689;23;20072;-89
2024/01/27 03:13:15;;;;;;;12.82;2.50;;;3.20;99.90;;;;;;6148136;23;20013;-88
2024/01/27 03:15:43;;;;;;;21.05;3.15;;;3.40;99.90;;;;;;6147365;23;20006;-88
2024/01/27 03:18:10;;;;;;;15.15;2.03;;;3.40;99.90;;;;;;6101990;23;1106623;-89
2024/01/27 03:20:36;;;;;;;14.57;2.08;;;3.30;99.90;;;;;;6148965;23;20020;-89
2024/01/27 03:23:03;;;;;;;15.38;2.50;;;3.30;99.90;;;;;;6148773;23;20013;-89
2024/01/27 03:25:30;;;;;;;21.20;2.53;;;3.30;99.90;;;;;;6148642;23;20100;-89
2024/01/27 03:27:56;;;;;;;16.27;2.72;;;3.30;99.90;;;;;;6148897;23;20013;-89
2024/01/27 03:30:23;;;;;;;19.52;2.40;;;3.30;99.90;;;;;;6148678;23;20021;-89
2024/01/27 03:32:49;;;;;;;18.33;2.33;;;3.30;99.90;;;;;;6148469;23;20014;-89
2024/01/27 03:35:16;;;;;;;18.15;2.70;;;3.30;99.90;;;;;;6149017;23;20010;-89
2024/01/27 03:37:42;;;;;;;10.80;2.17;;;3.30;99.90;;;;;;6148854;23;20369;-89
2024/01/27 03:40:10;;;;;;;16.38;1.88;;;3.30;99.90;;;;;;6173427;23;20017;-89
2024/01/27 03:42:36;;;;;;;22.25;2.67;;;3.40;99.90;;;;;;6148886;23;20017;-88
2024/01/27 03:45:03;;;;;;;17.75;2.28;;;3.40;99.90;;;;;;6148850;23;20013;-89
2024/01/27 03:47:30;;;;;;;13.43;2.40;;;3.40;99.90;;;;;;6173350;23;20028;-89
2024/01/27 03:49:56;;;;;;;15.55;2.55;;;3.70;99.90;;;;;;6148722;23;20018;-89
2024/01/27 03:52:23;;;;;;;21.10;2.78;;;3.40;99.90;;;;;;6149053;23;20006;-89
2024/01/27 03:54:49;;;;;;;13.07;2.60;;;3.80;99.90;;;;;;6148633;23;20020;-89
2024/01/27 03:57:16;;;;;;;15.35;2.08;;;3.40;99.90;;;;;;6148598;23;20014;-89
2024/01/27 03:59:43;;;;;;;15.18;1.95;;;3.50;99.90;;;;;;6148383;23;20052;-89
2024/01/27 04:02:10;;;;;;;16.05;2.30;;;3.50;99.90;;;;;;6148187;23;20044;-89
2024/01/27 04:04:36;;;;;;;19.08;2.47;;;3.40;99.90;;;;;;6148359;23;20449;-89
2024/01/27 04:07:03;;;;;;;14.30;2.92;;;4.10;99.90;;;;;;6148225;23;20025;-89
2024/01/27 04:09:30;;;;;;;17.88;2.38;;;3.30;99.90;;;;;;6147849;23;20013;-88
2024/01/27 04:11:56;;;;;;;18.50;2.60;;;3.30;99.90;;;;;;6148576;23;20016;-89
2024/01/27 04:14:23;;;;;;;13.20;2.45;;;4.30;99.90;;;;;;6172755;23;20009;-89
2024/01/27 04:16:49;;;;;;;18.55;2.72;;;3.20;99.90;;;;;;6148465;23;20047;-89
2024/01/27 04:19:16;;;;;;;15.02;2.53;;;4.30;99.90;;;;;;6148436;23;20009;-89
2024/01/27 04:21:43;;;;;;;17.67;2.70;;;3.10;99.90;;;;;;6148669;23;20014;-89
2024/01/27 04:24:09;;;;;;;15.82;2.78;;;3.50;99.90;;;;;;6148367;23;20075;-89
2024/01/27 04:26:36;;;;;;;20.55;3.17;;;3.10;99.90;;;;;;6148631;23;20014;-89
2024/01/27 04:29:02;;;;;;;17.23;2.60;;;3.10;99.90;;;;;;6148493;23;20121;-90
2024/01/27 04:31:31;;;;;;;19.83;2.55;;;3.00;99.90;;;;;;6148488;23;20021;-90
2024/01/27 04:33:58;;;;;;;19.02;2.85;;;4.00;99.90;;;;;;6148380;23;20010;-89
2024/01/27 04:36:26;;;;;;;19.88;2.70;;;3.80;99.90;;;;;;6148424;23;20045;-89
2024/01/27 04:38:53;;;;;;;17.92;2.45;;;2.90;99.90;;;;;;6148582;23;20437;-89
2024/01/27 04:41:20;;;;;;;15.80;2.53;;;2.90;99.90;;;;;;6172883;23;20064;-90
2024/01/27 04:43:46;;;;;;;15.48;2.65;;;3.70;99.90;;;;;;6148200;23;20045;-89
2024/01/27 04:46:13;;;;;;;12.07;2.75;;;2.80;99.90;;;;;;6148206;23;20015;-89
2024/01/27 04:48:39;;;;;;;15.00;2.95;;;2.80;99.90;;;;;;6148079;23;20152;-90
2024/01/27 04:51:06;;;;;;;16.13;2.83;;;2.80;99.90;;;;;;6148014;23;20076;-89
2024/01/27 04:53:33;;;;;;;13.18;2.40;;;2.80;99.90;;;;;;6148393;23;20016;-89
2024/01/27 04:55:59;;;;;;;22.60;3.03;;;2.80;99.90;;;;;;6148275;23;20053;-89
2024/01/27 04:58:26;;;;;;;13.73;2.55;;;3.00;99.90;;;;;;6148188;23;20433;-89
2024/01/27 05:00:52;;;;;;;10.38;2.40;;;2.70;99.90;;;;;;6148045;23;20508;-88
2024/01/27 05:03:19;;;;;;;18.25;2.90;;;2.70;99.90;;;;;;6172293;23;20025;-89
2024/01/27 05:05:46;;;;;;;13.80;2.10;;;3.90;99.90;;;;;;6148109;23;20014;-89
2024/01/27 05:08:13;;;;;;;17.52;2.50;;;2.70;99.90;;;;;;6172359;23;20075;-89
2024/01/27 05:10:39;;;;;;;14.45;3.60;;;2.70;99.90;;;;;;6148101;23;20014;-90
2024/01/27 05:13:06;;;;;;;13.05;1.92;;;2.70;99.90;;;;;;6148449;23;20006;-89
2024/01/27 05:15:32;;;;;;;22.20;2.88;;;2.70;99.90;;;;;;6148296;23;20068;-89
2024/01/27 05:17:59;;;;;;;15.40;2.72;;;2.70;99.90;;;;;;6148232;23;20053;-89
2024/01/27 05:20:26;;;;;;;16.30;2.47;;;3.50;99.90;;;;;;6148122;23;20044;-88
2024/01/27 05:22:53;;;;;;;18.00;2.70;;;3.70;99.90;;;;;;6147889;23;20045;-89
2024/01/27 05:25:19;;;;;;;16.95;2.50;;;2.70;99.90;;;;;;6148132;23;20048;-89
2024/01/27 05:27:46;;;;;;;15.15;2.40;;;3.60;99.90;;;;;;6148262;23;20100;-89
2024/01/27 05:30:13;;;;;;;14.00;2.58;;;2.70;99.90;;;;;;6148492;23;20049;-89
2024/01/27 05:32:39;;;;;;;15.90;2.53;;;2.70;99.90;;;;;;6148256;23;20049;-89
2024/01/27 05:35:07;;;;;;;18.17;2.55;;;2.70;99.90;;;;;;6148121;23;20010;-88
2024/01/27 05:37:33;;;;;;;15.07;2.70;;;2.70;99.90;;;;;;6148228;23;20014;-89
2024/01/27 05:40:00;;;;;;;18.48;2.67;;;2.80;99.90;;;;;;6148393;23;20036;-89
2024/01/27 05:42:26;;;;;;;15.07;2.78;;;3.10;99.90;;;;;;6172504;23;20014;-89
2024/01/27 05:44:53;;;;;;;13.82;3.40;;;2.60;99.90;;;;;;6148496;23;20010;-89
2024/01/27 05:47:20;;;;;;;13.30;2.38;;;2.50;99.90;;;;;;6148043;23;20009;-88
2024/01/27 05:49:46;;;;;;;15.95;2.85;;;3.30;99.90;;;;;;6147964;23;20073;-89
2024/01/27 05:52:13;;;;;;;20.35;2.78;;;2.90;99.90;;;;;;6148202;23;20064;-89
2024/01/27 05:54:43;;;;;;;19.27;3.08;;;2.60;99.90;;;;;;6148584;23;20500;-89
2024/01/27 05:57:10;;;;;;;17.75;2.63;;;2.50;99.90;;;;;;6149723;23;20010;-89
2024/01/27 05:59:37;;;;;;;17.02;2.70;;;3.30;99.90;;;;;;6174174;23;20482;-89
2024/01/27 06:02:03;;;;;;;17.35;2.53;;;2.50;99.90;;;;;;6149916;23;20009;-89
2024/01/27 06:04:31;;;;;;;13.82;2.42;;;3.30;99.90;;;;;;6149733;23;20503;-89
2024/01/27 06:06:58;;;;;;;19.33;3.03;;;3.00;99.90;;;;;;6149883;23;20092;-89
2024/01/27 06:09:24;;;;;;;17.27;2.53;;;2.50;99.90;;;;;;6149622;23;20041;-89
2024/01/27 06:11:51;;;;;;;20.13;3.80;;;2.70;99.90;;;;;;6149646;23;20014;-89
2024/01/27 06:14:17;;;;;;;22.15;3.42;;;2.50;99.90;;;;;;6149899;23;20013;-89
2024/01/27 06:16:44;;;;;;;12.27;2.65;;;2.50;99.90;;;;;;6149917;23;20014;-89
2024/01/27 06:19:10;;;;;;;19.13;2.70;;;3.60;99.90;;;;;;6173997;23;20452;-89
2024/01/27 06:21:37;;;;;;;13.13;2.58;;;2.50;99.90;;;;;;6149676;23;20020;-89
2024/01/27 06:24:04;;;;;;;25.02;2.88;;;2.50;99.90;;;;;;6149494;23;20123;-89
2024/01/27 06:26:30;;;;;;;21.17;2.67;;;2.40;99.90;;;;;;6173639;23;20014;-89
2024/01/27 06:28:57;;;;;;;21.25;3.13;;;2.50;99.90;;;;;;6149812;23;20017;-89
2024/01/27 06:31:24;;;;;;;17.23;2.97;;;2.50;99.90;;;;;;6173858;23;20020;-89
2024/01/27 06:33:50;;;;;;;17.83;3.13;;;2.40;99.90;;;;;;6149976;23;20013;-89
2024/01/27 06:36:17;;;;;;;16.52;2.58;;;2.40;99.90;;;;;;6149412;23;20021;-89
2024/01/27 06:38:43;;;;;;;18.33;3.42;;;2.40;99.90;;;;;;6149710;23;20010;-89
2024/01/27 06:41:10;;;;;;;20.58;4.57;;;3.20;99.90;;;;;;6149649;23;20013;-89
2024/01/27 06:43:37;;;;;;;16.65;5.30;;;2.30;99.90;;;;;;6149588;23;20021;-89
2024/01/27 06:46:03;;;;;;;19.05;5.90;;;2.30;99.90;;;;;;6149538;23;20092;-89
2024/01/27 06:48:30;;;;;;;17.60;4.50;;;2.30;99.90;;;;;;6149141;23;20009;-88
2024/01/27 06:50:57;;;;;;;27.35;3.88;;;2.40;99.90;;;;;;6149290;23;20017;-88
2024/01/27 06:53:23;;;;;;;14.38;3.45;;;2.20;99.90;;;;;;6174047;23;20345;-88
2024/01/27 06:55:50;;;;;;;16.67;3.00;;;2.20;99.90;;;;;;6149341;23;20389;-89
2024/01/27 06:58:16;;;;;;;14.02;2.58;;;2.50;99.90;;;;;;6148786;23;20013;-89
2024/01/27 07:00:44;;;;;;;13.68;2.50;;;2.20;99.90;;;;;;6149521;23;20049;-89
2024/01/27 07:03:11;;;;;;;14.10;2.67;;;3.50;99.90;;;;;;6149153;23;20083;-89
2024/01/27 07:05:40;;;;;;;14.07;2.60;;;2.20;99.90;;;;;;6172948;23;20045;-89
2024/01/27 07:08:08;;;;;;;14.65;2.47;;;2.10;99.90;;;;;;6172735;23;20025;-88
2024/01/27 07:10:35;;;;;;;17.67;2.50;;;2.10;99.90;;;;;;6148861;23;20084;-89
2024/01/27 07:13:02;;;;;;;10.38;2.13;;;2.10;99.90;;;;;;6148740;23;20009;-89
2024/01/27 07:15:29;;;;;;;15.23;2.53;;;2.10;99.90;;;;;;6148517;23;20035;-88
2024/01/27 07:17:55;;;;;;;13.32;2.72;;;2.20;99.90;;;;;;6148825;23;20017;-89
2024/01/27 07:20:24;;;;;;;16.48;2.45;;;2.20;99.90;;;;;;6149156;23;20419;-89
2024/01/27 07:22:50;;;;;;;15.38;2.90;;;2.20;99.90;;;;;;6148710;23;20326;-88
2024/01/27 07:25:17;;;;;;;15.75;2.38;;;3.20;99.90;;;;;;6148680;23;20028;-88
2024/01/27 07:27:44;;;;;;;17.00;2.63;;;2.20;99.90;;;;;;6148603;23;20021;-88
2024/01/27 07:30:11;;;;;;;15.63;3.05;;;2.20;99.90;;;;;;6148444;23;20050;-89
2024/01/27 07:32:38;;;;;;;13.95;2.45;;;2.20;99.90;;;;;;6148750;23;20076;-89
2024/01/27 07:35:05;;;;;;;13.88;2.65;;;2.60;99.90;;;;;;6148934;23;20017;-89
2024/01/27 07:37:32;;;;;;;13.80;2.80;;;2.20;99.90;;;;;;6149159;23;20014;-88
2024/01/27 07:39:59;;;;;;;9.93;2.25;;;2.20;99.90;;;;;;6148541;23;20020;-88
2024/01/27 07:42:25;;;;;;;20.13;2.88;;;2.20;99.90;;;;;;6148577;23;20453;-88
2024/01/27 07:44:52;;;;;;;12.73;2.80;;;2.20;99.90;;;;;;6148497;23;20013;-88
2024/01/27 07:47:19;;;;;;;12.90;2.35;;;2.20;99.90;;;;;;6173105;23;20051;-88
2024/01/27 07:49:45;;;;;;;14.95;2.83;;;2.30;99.90;;;;;;6148037;23;20010;-88
2024/01/27 07:52:12;;;;;;;22.20;2.88;;;2.30;99.90;;;;;;6172908;23;20017;-88
2024/01/27 07:54:40;;;;;;;21.45;3.72;;;2.30;99.90;;;;;;6148453;23;20013;-89
2024/01/27 07:57:06;;;;;;;16.42;3.10;;;2.30;99.90;;;;;;6148219;23;20045;-89
2024/01/27 07:59:33;;;;;;;15.77;3.08;;;2.30;99.90;;;;;;6147974;23;20020;-89
2024/01/27 08:02:00;;;;;;;17.77;3.40;;;2.30;99.90;;;;;;6148347;23;20140;-89
2024/01/27 08:04:26;;;;;;;18.30;3.67;;;2.30;99.90;;;;;;6148196;23;20014;-89
2024/01/27 08:06:53;;;;;;;20.95;4.35;;;2.40;99.90;;;;;;6173073;23;20475;-88
2024/01/27 08:09:20;;;;;;;17.60;2.72;;;2.40;99.90;;;;;;6148205;23;20096;-88
2024/01/27 08:11:51;;;;;;;17.08;3.03;;;2.40;99.90;;;;;;6148238;23;20013;-88
2024/01/27 08:14:18;;;;;;;16.67;3.22;;;2.40;99.90;;;;;;6148097;23;20020;-88
2024/01/27 08:16:44;;;;;;;15.85;3.15;;;2.40;99.90;;;;;;6142423;23;20018;-88
2024/01/27 08:19:11;;;;;;;20.23;4.05;;;2.40;99.90;;;;;;6143143;23;20020;-89
2024/01/27 08:21:38;;;;;;;23.65;4.18;;;3.70;99.90;;;;;;6143339;23;20319;-88
2024/01/27 08:24:05;;;;;;;18.35;3.63;;;2.50;99.90;;;;;;6143188;23;20061;-88
2024/01/27 08:26:31;;;;;;;18.52;3.53;;;2.50;99.90;;;;;;6142877;23;20013;-88
2024/01/27 08:28:58;;;;;;;16.88;3.75;;;3.90;99.90;;;;;;6143069;23;20041;-88
2024/01/27 08:31:25;;;;;;;13.95;3.40;;;3.70;99.90;;;;;;6167349;23;20024;-89
2024/01/27 08:33:52;;;;;;;24.02;4.10;;;2.60;99.90;;;;;;6143380;23;20038;-88
2024/01/27 08:36:18;;;;;;;16.88;4.60;;;2.70;99.90;;;;;;6143445;23;20089;-88
2024/01/27 08:38:45;;;;;;;19.85;4.45;;;2.70;99.90;;;;;;6143321;23;20057;-88
2024/01/27 08:41:12;;;;;;;16.73;4.10;;;3.40;99.90;;;;;;6143048;23;20014;-88
2024/01/27 08:43:39;;;;;;;22.63;3.90;;;3.80;99.90;;;;;;6142818;23;20068;-87
2024/01/27 08:46:07;;;;;;;18.42;3.97;;;2.90;99.90;;;;;;6143320;23;20064;-88
2024/01/27 08:48:34;;;;;;;19.58;3.70;;;4.10;99.90;;;;;;6143072;23;20020;-88
2024/01/27 08:51:00;;;;;;;20.85;4.50;;;3.00;99.90;;;;;;6143219;23;20093;-88
2024/01/27 08:53:27;;;;;;;24.02;4.40;;;3.20;99.90;;;;;;6142945;23;20014;-88
2024/01/27 08:55:54;;;;;;;21.95;4.63;;;3.20;99.90;;;;;;6142844;23;20009;-88
2024/01/27 08:58:20;;;;;;;16.55;3.97;;;3.30;99.90;;;;;;6142510;23;20006;-85
2024/01/27 09:00:47;;;;;;;22.55;4.72;;;3.90;99.90;;;;;;6167184;23;20014;-88
2024/01/27 09:03:14;;;;;;;23.83;5.00;;;3.40;99.90;;;;;;6141997;23;20018;-93
2024/01/27 09:05:43;;;;;;;28.52;5.63;;;4.30;99.90;;;;;;6142831;23;20403;-93
2024/01/27 09:08:10;;;;;;;25.58;5.28;;;3.50;99.90;;;;;;6142966;23;20068;-94
2024/01/27 09:10:37;;;;;;;26.92;4.85;;;4.30;99.90;;;;;;6142941;23;20010;-94
2024/01/27 09:13:04;;;;;;;24.42;5.43;;;3.60;99.90;;;;;;6143000;23;20072;-94
2024/01/27 09:15:31;;;;;;;20.38;4.60;;;3.60;99.90;;;;;;6167437;23;20017;-92
2024/01/27 09:17:58;;;;;;;18.98;4.63;;;3.70;99.90;;;;;;6142985;23;20505;-93
2024/01/27 09:20:24;;;;;;;20.17;4.38;;;3.70;99.90;;;;;;6143097;23;20069;-93
2024/01/27 09:22:51;;;;;;;24.17;4.78;;;3.80;99.90;;;;;;6142722;23;20014;-86
2024/01/27 09:25:17;;;;;;;14.88;4.30;;;3.80;99.90;;;;;;6142750;23;20046;-92
2024/01/27 09:27:44;;;;;;;18.75;4.95;;;3.90;99.90;;;;;;6142400;23;20009;-91
2024/01/27 09:30:11;;;;;;;16.70;5.03;;;4.80;99.90;;;;;;6143159;23;20421;-93
2024/01/27 09:32:39;;;;;;;20.63;5.32;;;4.00;99.90;;;;;;6144792;23;20068;-92
2024/01/27 09:35:06;;;;;;;12.10;4.90;;;4.00;99.90;;;;;;6144946;23;20025;-94
2024/01/27 09:37:33;;;;;;;26.85;6.00;;;4.10;99.90;;;;;;6144374;23;20013;-84
2024/01/27 09:40:02;;;;;;;19.75;5.28;;;4.40;99.90;;;;;;6169254;23;20018;-91
2024/01/27 09:42:30;;;;;;;17.48;5.40;;;4.60;99.90;;;;;;6169125;23;20024;-92
2024/01/27 09:44:59;;;;;;;25.02;5.72;;;5.50;99.90;;;;;;6144918;23;20090;-92
2024/01/27 09:47:26;;;;;;;17.20;5.28;;;4.70;99.90;;;;;;6144749;23;20041;-92
2024/01/27 09:49:53;;;;;;;18.05;5.30;;;4.80;99.90;;;;;;6144925;23;20120;-91
2024/01/27 09:52:19;;;;;;;17.33;5.10;;;4.80;99.90;;;;;;6144747;23;20067;-91
2024/01/27 09:54:46;;;;;;;22.75;5.60;;;5.10;99.90;;;;;;6145083;23;20006;-92
2024/01/27 09:57:13;;;;;;;18.67;5.38;;;5.00;99.90;;;;;;6145430;23;20025;-91
2024/01/27 09:59:44;;;;;;;17.67;4.97;;;6.00;99.90;;;;;;6144670;23;20470;-91
2024/01/27 10:02:12;;;;;;;21.80;5.40;;;4.70;99.90;;;;;;6144769;23;20009;-91
2024/01/27 10:04:42;;;;;;;15.50;4.63;;;4.70;99.90;;;;;;6144800;23;20091;-92
2024/01/27 10:07:08;;;;;;;14.68;4.85;;;5.80;99.90;;;;;;6144710;23;20020;-92
2024/01/27 10:09:35;;;;;;;25.35;5.03;;;6.00;99.90;;;;;;6154444;23;20010;-91
2024/01/27 10:12:02;;;;;;;21.13;5.30;;;5.10;99.90;;;;;;6146823;23;20018;-92
2024/01/27 10:14:41;;;;;;;14.80;4.60;;;5.00;99.90;;;;;;6144921;23;20445;-92
2024/01/27 10:17:12;;;;;;;17.33;4.47;;;5.90;99.90;;;;;;6145178;23;20014;-92
2024/01/27 10:19:38;;;;;;;19.17;4.53;;;6.10;99.90;;;;;;6145217;23;20017;-92
2024/01/27 10:22:05;;;;;;;21.80;5.40;;;6.70;99.90;;;;;;6144758;23;20445;-92
2024/01/27 10:24:33;;;;;;;18.55;4.90;;;5.30;99.90;;;;;;6144892;23;20014;-91
2024/01/27 10:27:04;;;;;;;20.85;4.78;;;6.50;99.90;;;;;;6144384;23;20021;-92
2024/01/27 10:29:31;;;;;;;16.80;4.55;;;5.30;99.90;;;;;;6144524;23;20013;-93
2024/01/27 10:32:08;;;;;;;16.25;5.00;;;5.30;99.90;;;;;;6144452;23;20021;-91
2024/01/27 10:34:35;;;;;;;21.60;4.63;;;5.40;99.90;;;;;;6169311;23;20080;-92
2024/01/27 10:37:02;;;;;;;21.48;4.68;;;6.50;99.90;;;;;;6169370;23;20041;-92
2024/01/27 10:39:28;;;;;;;15.93;4.38;;;5.50;99.90;;;;;;6144528;23;20041;-91
2024/01/27 10:41:55;;;;;;;18.92;4.85;;;6.50;99.90;;;;;;6144574;23;20712;-92
2024/01/27 10:44:22;;;;;;;17.65;4.63;;;6.90;99.90;;;;;;6144622;23;20014;-91
2024/01/27 10:46:50;;;;;;;17.10;4.85;;;5.70;99.90;;;;;;6144581;23;20056;-92
2024/01/27 10:49:17;;;;;;;19.38;4.45;;;6.70;99.90;;;;;;6168939;23;20017;-92
2024/01/27 10:51:45;;;;;;;14.70;4.45;;;6.30;99.90;;;;;;6144506;23;20014;-91
2024/01/27 10:54:22;;;;;;;17.88;4.70;;;7.20;99.90;;;;;;6144092;23;20010;-92
2024/01/27 10:56:54;;;;;;;18.52;4.40;;;5.80;99.90;;;;;;6144275;23;20545;-91
2024/01/27 10:59:22;;;;;;;15.25;4.78;;;5.80;99.90;;;;;;6144437;23;20010;-91
2024/01/27 11:01:53;;;;;;;16.52;4.15;;;6.70;99.90;;;;;;6168473;23;20014;-91
2024/01/27 11:04:20;;;;;;;17.75;5.13;;;6.00;99.90;;;;;;6143887;23;20053;-91
2024/01/27 11:06:50;;;;;;;16.80;4.47;;;6.00;99.90;;;;;;6143766;23;20065;-91
2024/01/27 11:09:18;;;;;;;23.80;5.00;;;6.40;99.90;;;;;;6143975;23;20017;-91
2024/01/27 11:11:47;;;;;;;22.98;5.32;;;6.00;99.90;;;;;;6143687;23;20461;-91
2024/01/27 11:14:13;;;;;;;16.70;4.65;;;7.20;99.90;;;;;;6168139;23;20338;-91
2024/01/27 11:16:43;;;;;;;19.70;4.70;;;6.80;99.90;;;;;;6143813;23;20025;-92
2024/01/27 11:19:14;;;;;;;16.55;4.85;;;7.50;99.90;;;;;;6143773;23;20026;-91
2024/01/27 11:21:40;;;;;;;19.83;5.32;;;7.80;99.90;;;;;;6143744;23;20111;-91
2024/01/27 11:24:18;;;;;;;14.13;4.25;;;6.30;99.90;;;;;;6143702;23;20018;-92
2024/01/27 11:26:44;;;;;;;19.80;4.97;;;6.30;99.90;;;;;;6143738;23;20021;-92
2024/01/27 11:29:20;;;;;;;18.40;5.10;;;7.00;99.90;;;;;;6143832;23;20445;-92
2024/01/27 11:31:48;;;;;;;13.63;4.80;;;7.70;99.90;;;;;;6143527;23;20092;-92
2024/01/27 11:34:18;;;;;;;18.98;4.97;;;6.90;99.90;;;;;;6144347;23;20009;-91
2024/01/27 11:36:44;;;;;;;17.90;4.88;;;7.10;99.90;;;;;;6168130;23;20049;-92
2024/01/27 11:39:29;;;;;;;20.85;5.20;;;7.10;99.90;;;;;;6143461;23;20014;-92
2024/01/27 11:42:08;;;;;;;24.23;5.13;;;7.00;99.90;;;;;;6143930;23;20014;-91
2024/01/27 11:44:36;;;;;;;16.70;5.00;;;6.50;99.90;;;;;;6145302;23;20075;-91
2024/01/27 11:47:04;;;;;;;15.15;4.63;;;7.90;99.90;;;;;;6143737;23;20093;-91
2024/01/27 11:49:32;;;;;;;16.88;4.57;;;6.60;99.90;;;;;;6143907;23;20014;-93
2024/01/27 11:51:59;;;;;;;17.50;5.20;;;6.60;99.90;;;;;;6143193;23;20802;-92
2024/01/27 11:54:26;;;;;;;18.08;5.57;;;6.70;99.90;;;;;;6143390;23;20018;-91
2024/01/27 11:56:52;;;;;;;16.17;4.55;;;7.50;99.90;;;;;;6143498;23;20041;-92
2024/01/27 11:59:20;;;;;;;19.58;4.50;;;6.70;99.90;;;;;;6143510;23;20649;-91
2024/01/27 12:01:47;;;;;;;18.55;4.82;;;7.60;99.90;;;;;;6143193;23;20025;-92
2024/01/27 12:04:14;;;;;;;22.17;4.72;;;6.80;99.90;;;;;;6143411;23;20014;-92
2024/01/27 12:06:43;;;;;;;19.25;4.72;;;7.60;99.90;;;;;;6143261;23;20014;-92
2024/01/27 12:09:11;;;;;;;19.92;4.22;;;6.90;99.90;;;;;;6143265;23;20022;-92
2024/01/27 12:11:40;;;;;;;16.05;4.43;;;7.50;99.90;;;;;;6167658;23;20029;-91
2024/01/27 12:14:07;;;;;;;16.95;4.20;;;7.10;99.90;;;;;;6143401;23;20006;-91
2024/01/27 12:16:34;;;;;;;13.55;3.78;;;7.80;99.90;;;;;;6143062;23;20018;-92
2024/01/27 12:19:01;;;;;;;23.83;8.90;;;6.10;99.90;;;;;;6143475;23;20126;-91
2024/01/27 12:21:28;;;;;;;24.25;10.13;;;7.10;99.90;;;;;;6143103;23;20060;-93
2024/01/27 12:23:57;;;;;;;23.83;6.07;;;7.10;99.90;;;;;;6167505;23;20018;-92
2024/01/27 12:26:29;;;;;;;19.65;4.50;;;8.30;99.90;;;;;;6143118;23;20021;-91
2024/01/27 12:28:57;;;;;;;19.92;4.40;;;7.10;99.90;;;;;;6143137;23;20037;-91
2024/01/27 12:31:25;;;;;;;17.13;3.35;;;7.50;99.90;;;;;;6143147;23;20014;-92
2024/01/27 12:33:53;;;;;;;14.80;4.78;;;7.10;99.90;;;;;;6143292;23;20010;-91
2024/01/27 12:36:21;;;;;;;21.33;4.75;;;7.80;99.90;;;;;;6167531;23;20469;-91
2024/01/27 12:39:08;;;;;;;20.60;3.90;;;7.30;99.90;;;;;;6143095;23;20016;-91
2024/01/27 12:41:35;;;;;;;15.90;4.78;;;8.30;99.90;;;;;;6143297;23;20014;-92
2024/01/27 12:44:03;;;;;;;14.50;4.38;;;8.60;99.90;;;;;;6143051;23;20077;-91
2024/01/27 12:46:31;;;;;;;13.52;4.28;;;7.30;99.90;;;;;;6143149;23;20421;-92
2024/01/27 12:48:58;;;;;;;13.27;3.75;;;7.30;99.90;;;;;;6143185;23;20025;-92